Time;durP1;ratioP1;P1;durP2;ratioP2;P2;SDS_P1;SDS_P2;PMS_P1;PMS_P2;Temp;Humidity;BMP_temperature;BMP_pressure;BME280_temperature;BME280_humidity;BME280_pressure;Samples;Min_cycle;Max_cycle;Signal;HPM_P1;HPM_P2
2021/10/17 00:00:00;;;;;;;0.30;0.30;;;;;;;10.19;100.00;97813.41;5032795;28;20415;-83
2021/10/17 00:02:26;;;;;;;0.10;0.10;;;;;;;10.19;100.00;97810.72;5038377;28;20112;-84
2021/10/17 00:04:52;;;;;;;0.10;0.10;;;;;;;10.26;100.00;97820.16;5030419;28;20201;-84
2021/10/17 00:07:18;;;;;;;3.92;0.80;;;;;;;10.22;100.00;97821.25;5045107;28;20032;-82
2021/10/17 00:09:44;;;;;;;0.30;0.30;;;;;;;10.15;100.00;97809.19;5024901;28;20029;-83
2021/10/17 00:12:11;;;;;;;0.70;0.50;;;;;;;10.18;100.00;97820.56;5023434;28;20025;-83
2021/10/17 00:14:37;;;;;;;0.30;0.30;;;;;;;10.20;100.00;97826.69;5028250;28;20029;-83
2021/10/17 00:17:04;;;;;;;0.10;0.10;;;;;;;10.23;100.00;97823.84;5035671;28;20111;-82
2021/10/17 00:19:30;;;;;;;0.22;0.22;;;;;;;10.28;100.00;97831.59;5049977;28;20025;-82
2021/10/17 00:21:56;;;;;;;0.17;0.17;;;;;;;10.13;100.00;97821.75;5022229;28;20056;-83
2021/10/17 00:24:21;;;;;;;0.10;0.10;;;;;;;10.14;100.00;97827.03;5035570;28;20087;-83
2021/10/17 00:26:52;;;;;;;0.40;0.40;;;;;;;10.26;100.00;97839.72;5024333;28;20029;-82
2021/10/17 00:29:18;;;;;;;1.25;0.73;;;;;;;10.20;100.00;97829.38;5045728;28;20554;-83
2021/10/17 00:31:44;;;;;;;0.43;0.43;;;;;;;10.24;100.00;97830.91;5027451;28;20028;-83
2021/10/17 00:34:10;;;;;;;0.20;0.20;;;;;;;10.23;100.00;97834.56;5023689;28;20045;-82
2021/10/17 00:36:36;;;;;;;0.52;0.52;;;;;;;10.26;100.00;97829.03;5025970;28;20083;-84
2021/10/17 00:39:02;;;;;;;0.38;0.38;;;;;;;10.25;100.00;97815.72;5029525;28;20021;-83
2021/10/17 00:41:31;;;;;;;0.38;0.38;;;;;;;10.32;100.00;97831.34;5020557;28;20555;-83
2021/10/17 00:44:00;;;;;;;0.30;0.30;;;;;;;10.29;100.00;97826.19;5040978;28;20026;-84
2021/10/17 00:46:26;;;;;;;0.43;0.43;;;;;;;10.31;100.00;97826.09;5019617;28;20025;-84
2021/10/17 00:48:52;;;;;;;0.35;0.30;;;;;;;10.31;100.00;97836.78;5024523;28;20125;-82
2021/10/17 00:51:18;;;;;;;0.50;0.50;;;;;;;10.32;100.00;97828.69;5025841;28;20021;-84
2021/10/17 00:53:46;;;;;;;0.65;0.65;;;;;;;10.31;100.00;97832.28;5010895;28;20047;-83
2021/10/17 00:56:12;;;;;;;1.05;0.98;;;;;;;10.23;100.00;97820.31;5022048;28;20139;-83
2021/10/17 00:58:38;;;;;;;1.60;0.98;;;;;;;10.27;100.00;97829.91;5020846;28;20041;-83
2021/10/17 01:01:04;;;;;;;0.73;0.68;;;;;;;10.26;100.00;97823.69;5023582;28;20025;-83
2021/10/17 01:03:30;;;;;;;1.08;0.93;;;;;;;10.31;100.00;97836.78;5028843;28;20040;-84
2021/10/17 01:05:56;;;;;;;2.53;1.65;;;;;;;10.33;100.00;97833.09;5021573;28;20029;-82
2021/10/17 01:08:22;;;;;;;1.23;1.00;;;;;;;10.36;100.00;97828.50;5027263;28;20067;-85
2021/10/17 01:10:53;;;;;;;1.15;0.98;;;;;;;10.36;100.00;97833.84;5027273;28;20079;-83
2021/10/17 01:13:20;;;;;;;4.63;1.92;;;;;;;10.34;100.00;97829.44;5023157;28;20068;-84
2021/10/17 01:15:53;;;;;;;1.70;1.42;;;;;;;10.18;100.00;97809.03;5025026;28;20037;-84
2021/10/17 01:18:20;;;;;;;1.23;0.77;;;;;;;10.30;100.00;97833.22;5041844;28;20100;-83
2021/10/17 01:20:46;;;;;;;0.75;0.75;;;;;;;10.30;100.00;97832.41;5030789;28;20026;-84
2021/10/17 01:23:12;;;;;;;0.30;0.30;;;;;;;10.27;100.00;97821.88;5020962;28;20029;-85
2021/10/17 01:25:38;;;;;;;0.08;0.08;;;;;;;10.29;100.00;97831.53;5022358;28;20552;-84
2021/10/17 01:28:04;;;;;;;0.47;0.30;;;;;;;10.22;100.00;97827.47;5025235;28;20025;-83
2021/10/17 01:30:33;;;;;;;0.30;0.30;;;;;;;10.28;100.00;97829.78;5032508;28;20034;-82
2021/10/17 01:32:59;;;;;;;0.52;0.52;;;;;;;10.19;100.00;97827.63;5017976;28;20049;-83
2021/10/17 01:35:25;;;;;;;0.32;0.32;;;;;;;10.15;100.00;97818.06;5030419;28;20098;-82
2021/10/17 01:37:50;;;;;;;0.30;0.30;;;;;;;10.23;100.00;97829.19;5041311;28;20442;-83
2021/10/17 01:40:16;;;;;;;2.50;0.60;;;;;;;10.34;100.00;97840.16;5027206;28;20029;-84
2021/10/17 01:42:42;;;;;;;0.65;0.50;;;;;;;10.24;100.00;97825.56;5027891;28;20064;-83
2021/10/17 01:45:08;;;;;;;1.38;0.35;;;;;;;10.28;100.00;97829.78;5041846;28;20063;-83
2021/10/17 01:47:34;;;;;;;1.13;0.30;;;;;;;10.30;100.00;97835.06;5026259;28;20041;-82
2021/10/17 01:50:00;;;;;;;0.25;0.25;;;;;;;10.31;100.00;97826.94;5029100;28;20046;-83
2021/10/17 01:52:25;;;;;;;0.40;0.40;;;;;;;10.37;100.00;97840.94;5044841;28;20017;-83
2021/10/17 01:54:51;;;;;;;0.57;0.57;;;;;;;10.34;100.00;97837.47;5049404;28;20056;-84
2021/10/17 01:57:17;;;;;;;0.10;0.10;;;;;;;10.36;100.00;97847.22;5027305;28;20082;-84
2021/10/17 01:59:42;;;;;;;0.85;0.50;;;;;;;10.32;100.00;97834.03;5022822;28;20177;-84
2021/10/17 02:02:08;;;;;;;3.92;0.75;;;;;;;10.31;100.00;97834.97;5033913;28;20025;-84
2021/10/17 02:04:34;;;;;;;0.40;0.40;;;;;;;10.32;100.00;97826.00;5023234;28;20036;-84
2021/10/17 02:06:59;;;;;;;0.52;0.45;;;;;;;10.28;100.00;97824.44;5023256;28;20021;-84
2021/10/17 02:09:25;;;;;;;0.60;0.52;;;;;;;10.27;100.00;97825.38;5025523;28;20496;-84
2021/10/17 02:11:51;;;;;;;1.10;0.63;;;;;;;10.32;100.00;97825.16;5026549;28;20020;-83
2021/10/17 02:14:17;;;;;;;0.47;0.40;;;;;;;10.34;100.00;97831.25;5026833;28;20024;-83
2021/10/17 02:16:43;;;;;;;0.45;0.45;;;;;;;10.33;100.00;97819.72;5033008;28;20029;-84
2021/10/17 02:19:08;;;;;;;0.20;0.20;;;;;;;10.35;100.00;97830.31;5030546;28;20029;-83
2021/10/17 02:21:34;;;;;;;0.50;0.47;;;;;;;10.28;100.00;97805.72;5041070;28;20063;-83
2021/10/17 02:23:59;;;;;;;2.35;0.70;;;;;;;10.37;100.00;97824.91;5021499;28;20107;-83
2021/10/17 02:26:25;;;;;;;0.22;0.20;;;;;;;10.29;100.00;97828.84;5026366;28;20025;-83
2021/10/17 02:28:51;;;;;;;0.10;0.10;;;;;;;10.27;100.00;97825.38;5033837;28;20021;-84
2021/10/17 02:31:16;;;;;;;0.52;0.30;;;;;;;10.23;100.00;97826.53;5026766;28;20021;-84
2021/10/17 02:33:42;;;;;;;0.28;0.28;;;;;;;10.29;100.00;97830.66;5028969;28;20044;-84
2021/10/17 02:36:08;;;;;;;1.45;0.63;;;;;;;10.30;100.00;97824.38;5040842;28;20392;-84
2021/10/17 02:38:34;;;;;;;2.72;0.93;;;;;;;10.22;100.00;97816.78;5029067;28;20033;-83
2021/10/17 02:40:59;;;;;;;0.32;0.32;;;;;;;10.30;100.00;97824.38;5022278;28;20029;-84
2021/10/17 02:43:25;;;;;;;2.08;0.60;;;;;;;10.37;100.00;97830.25;5021136;28;20039;-83
2021/10/17 02:45:59;;;;;;;1.00;0.57;;;;;;;10.20;100.00;97808.00;5041841;28;20033;-84
2021/10/17 02:48:24;;;;;;;0.77;0.77;;;;;;;10.27;100.00;97827.22;5026103;28;20032;-83
2021/10/17 02:50:50;;;;;;;0.17;0.17;;;;;;;10.31;100.00;97829.63;5024456;28;20090;-84
2021/10/17 02:53:15;;;;;;;0.20;0.20;;;;;;;10.32;100.00;97835.84;5032755;28;20488;-84
2021/10/17 02:55:41;;;;;;;1.45;0.38;;;;;;;10.31;100.00;97834.97;5035055;28;20035;-84
2021/10/17 02:58:07;;;;;;;0.30;0.30;;;;;;;10.24;100.00;97830.91;5030087;28;20024;-83
2021/10/17 03:00:32;;;;;;;0.28;0.22;;;;;;;10.24;100.00;97840.75;5020749;28;20128;-83
2021/10/17 03:02:58;;;;;;;0.50;0.25;;;;;;;10.15;100.00;97834.09;5024597;28;20040;-83
2021/10/17 03:05:24;;;;;;;0.50;0.47;;;;;;;10.20;100.00;97840.06;5032910;28;20037;-82
2021/10/17 03:07:49;;;;;;;0.32;0.32;;;;;;;10.17;100.00;97842.91;5034113;28;20033;-82
2021/10/17 03:10:15;;;;;;;0.40;0.40;;;;;;;10.19;100.00;97838.34;5028002;28;20116;-82
2021/10/17 03:12:40;;;;;;;0.85;0.52;;;;;;;10.29;100.00;97847.56;5030087;28;20060;-83
2021/10/17 03:15:07;;;;;;;0.40;0.40;;;;;;;10.24;100.00;97846.13;5041050;28;20071;-84
2021/10/17 03:17:33;;;;;;;0.32;0.32;;;;;;;10.23;100.00;97844.38;5039958;28;20028;-83
2021/10/17 03:19:59;;;;;;;0.65;0.60;;;;;;;10.17;100.00;97834.03;5032835;28;20021;-83
2021/10/17 03:22:24;;;;;;;0.50;0.35;;;;;;;10.27;100.00;97851.28;5043641;28;20091;-83
2021/10/17 03:24:50;;;;;;;0.50;0.50;;;;;;;10.24;100.00;97838.94;5038874;28;20021;-84
2021/10/17 03:27:16;;;;;;;0.20;0.20;;;;;;;10.21;100.00;97841.78;5031164;28;20056;-83
2021/10/17 03:29:41;;;;;;;0.70;0.50;;;;;;;10.19;100.00;97857.03;5024496;28;20059;-84
2021/10/17 03:32:07;;;;;;;0.20;0.20;;;;;;;10.17;100.00;97847.38;5027389;28;20040;-84
2021/10/17 03:34:33;;;;;;;0.10;0.10;;;;;;;10.09;100.00;97842.41;5029164;28;20052;-84
2021/10/17 03:36:58;;;;;;;0.50;0.50;;;;;;;10.17;100.00;97850.06;5042545;28;20048;-83
2021/10/17 03:39:24;;;;;;;0.70;0.70;;;;;;;10.15;100.00;97847.47;5035617;28;20040;-83
2021/10/17 03:41:49;;;;;;;0.80;0.80;;;;;;;10.17;100.00;97840.25;5032912;28;20033;-83
2021/10/17 03:44:15;;;;;;;1.45;1.00;;;;;;;10.23;100.00;97855.94;5045718;28;20017;-83
2021/10/17 03:46:41;;;;;;;0.22;0.22;;;;;;;10.21;100.00;97855.13;5049805;28;20029;-84
2021/10/17 03:49:06;;;;;;;0.30;0.30;;;;;;;10.22;100.00;97848.00;5031307;28;20025;-84
2021/10/17 03:51:32;;;;;;;0.52;0.50;;;;;;;10.28;100.00;97853.00;5036703;28;20017;-83
2021/10/17 03:53:58;;;;;;;0.57;0.30;;;;;;;10.31;100.00;97848.34;5038855;28;20415;-84
2021/10/17 03:56:23;;;;;;;3.58;0.47;;;;;;;10.24;100.00;97841.59;5029248;28;20041;-84
2021/10/17 03:58:49;;;;;;;0.30;0.30;;;;;;;10.17;100.00;97844.72;5053333;28;20119;-85
2021/10/17 04:01:15;;;;;;;0.32;0.32;;;;;;;10.15;100.00;97850.13;5033741;28;20121;-84
2021/10/17 04:03:41;;;;;;;0.60;0.40;;;;;;;10.16;100.00;97849.19;5026494;28;20044;-84
2021/10/17 04:06:07;;;;;;;0.30;0.30;;;;;;;10.25;100.00;97858.50;5047992;28;20570;-84
2021/10/17 04:08:32;;;;;;;0.43;0.43;;;;;;;10.23;100.00;97855.06;5028330;28;20120;-84
2021/10/17 04:10:58;;;;;;;0.45;0.45;;;;;;;10.23;100.00;97850.59;5027753;28;20060;-83
2021/10/17 04:13:24;;;;;;;3.60;0.75;;;;;;;10.30;100.00;97853.78;5045307;28;20036;-83
2021/10/17 04:15:49;;;;;;;0.52;0.50;;;;;;;10.28;100.00;97853.84;5032460;28;20032;-84
2021/10/17 04:18:15;;;;;;;0.10;0.10;;;;;;;10.32;100.00;97855.41;5037156;28;20029;-83
2021/10/17 04:20:41;;;;;;;1.52;0.77;;;;;;;10.32;100.00;97862.56;5023043;28;20110;-84
2021/10/17 04:23:07;;;;;;;1.40;0.65;;;;;;;10.28;100.00;97861.88;5040393;28;20029;-85
2021/10/17 04:25:33;;;;;;;2.03;1.05;;;;;;;10.19;100.00;97849.03;5030090;28;20123;-83
2021/10/17 04:27:59;;;;;;;2.50;1.05;;;;;;;10.26;100.00;97871.81;5043066;28;20036;-85
2021/10/17 04:30:25;;;;;;;2.63;1.02;;;;;;;10.18;100.00;97857.97;5029964;28;20036;-84
2021/10/17 04:32:50;;;;;;;0.28;0.28;;;;;;;10.21;100.00;97862.31;5028878;28;20090;-84
2021/10/17 04:35:16;;;;;;;1.88;1.02;;;;;;;10.24;100.00;97867.50;5039658;28;20136;-86
2021/10/17 04:37:42;;;;;;;0.80;0.80;;;;;;;10.17;100.00;97861.63;5030642;28;20024;-85
2021/10/17 04:40:09;;;;;;;2.10;1.00;;;;;;;10.21;100.00;97865.00;5046781;28;20103;-86
2021/10/17 04:42:35;;;;;;;2.05;1.15;;;;;;;10.24;100.00;97863.00;5027939;28;20048;-85
2021/10/17 04:45:03;;;;;;;1.55;1.35;;;;;;;10.28;100.00;97875.25;5037032;28;20032;-85
2021/10/17 04:47:29;;;;;;;1.02;0.85;;;;;;;10.19;100.00;97875.75;5034230;28;20496;-83
2021/10/17 04:49:54;;;;;;;0.77;0.77;;;;;;;10.24;100.00;97875.53;5027646;28;20044;-83
2021/10/17 04:52:20;;;;;;;2.03;1.67;;;;;;;10.27;100.00;97878.84;5019171;28;20055;-83
2021/10/17 04:54:45;;;;;;;3.08;2.40;;;;;;;10.27;100.00;97876.19;5027338;28;20182;-82
2021/10/17 04:57:11;;;;;;;4.32;2.90;;;;;;;10.31;100.00;97883.09;5044846;28;20491;-83
2021/10/17 04:59:37;;;;;;;4.88;3.30;;;;;;;10.38;100.00;97888.09;5033906;28;20032;-83
2021/10/17 05:02:03;;;;;;;3.70;2.13;;;;;;;10.37;100.00;97894.41;5033936;28;20174;-82
2021/10/17 05:04:28;;;;;;;3.45;2.80;;;;;;;10.36;100.00;97890.00;5024319;28;20040;-83
2021/10/17 05:06:54;;;;;;;3.83;2.53;;;;;;;10.36;100.00;97882.00;5032421;28;20634;-82
2021/10/17 05:09:19;;;;;;;4.38;2.55;;;;;;;10.33;100.00;97883.91;5021473;28;20036;-82
2021/10/17 05:11:45;;;;;;;6.57;2.78;;;;;;;10.36;100.00;97898.91;5018986;28;20412;-83
2021/10/17 05:14:11;;;;;;;4.78;2.45;;;;;;;10.38;100.00;97902.34;5020475;28;20094;-76
2021/10/17 05:16:36;;;;;;;4.13;2.28;;;;;;;10.40;100.00;97902.28;5029847;28;20029;-83
2021/10/17 05:19:02;;;;;;;2.35;2.10;;;;;;;10.44;100.00;97906.47;5022601;28;20025;-83
2021/10/17 05:21:28;;;;;;;2.20;1.98;;;;;;;10.39;100.00;97913.91;5047060;28;20035;-84
2021/10/17 05:23:55;;;;;;;6.00;3.33;;;;;;;10.42;100.00;97913.75;5036807;28;20025;-84
2021/10/17 05:26:21;;;;;;;2.85;2.38;;;;;;;10.45;100.00;97921.59;5035793;28;20487;-84
2021/10/17 05:28:47;;;;;;;2.38;1.75;;;;;;;10.47;100.00;97920.56;5033640;28;20044;-82
2021/10/17 05:31:12;;;;;;;11.57;3.67;;;;;;;10.47;100.00;97919.69;5018527;28;20024;-83
2021/10/17 05:33:41;;;;;;;4.88;2.58;;;;;;;10.50;100.00;97927.53;5035428;28;20044;-84
2021/10/17 05:36:07;;;;;;;2.97;2.53;;;;;;;10.55;100.00;97936.19;5043281;28;20032;-84
2021/10/17 05:38:33;;;;;;;4.63;2.15;;;;;;;10.51;100.00;97927.47;5032617;28;20416;-84
2021/10/17 05:40:58;;;;;;;2.50;2.30;;;;;;;10.51;100.00;97929.28;5028025;28;20109;-84
2021/10/17 05:43:24;;;;;;;5.78;3.08;;;;;;;10.47;100.00;97931.25;5031043;28;20562;-84
2021/10/17 05:45:50;;;;;;;2.63;2.35;;;;;;;10.48;100.00;97932.97;5035715;28;20155;-84
2021/10/17 05:48:15;;;;;;;4.18;2.50;;;;;;;10.51;100.00;97942.66;5033486;28;20412;-84
2021/10/17 05:50:41;;;;;;;3.80;2.28;;;;;;;10.51;100.00;97935.50;5029410;28;20037;-84
2021/10/17 05:53:07;;;;;;;5.38;2.80;;;;;;;10.57;100.00;97945.84;5038497;28;20039;-92
2021/10/17 05:55:33;;;;;;;5.82;2.72;;;;;;;10.54;100.00;97951.38;5039735;28;20559;-91
2021/10/17 05:57:58;;;;;;;2.97;1.80;;;;;;;10.53;100.00;97944.28;5030960;28;20036;-91
2021/10/17 06:00:24;;;;;;;6.07;3.20;;;;;;;10.58;100.00;97949.38;5039269;28;20808;-91
2021/10/17 06:02:50;;;;;;;6.43;5.10;;;;;;;10.58;100.00;97952.06;5038888;28;20108;-90
2021/10/17 06:05:16;;;;;;;7.00;3.25;;;;;;;10.51;100.00;97958.69;5031257;28;20039;-92
2021/10/17 06:07:41;;;;;;;2.95;2.72;;;;;;;10.57;100.00;97961.91;5038506;28;20032;-91
2021/10/17 06:10:09;;;;;;;2.97;2.70;;;;;;;10.62;100.00;97973.19;5039649;28;20032;-91
2021/10/17 06:12:40;;;;;;;3.47;2.30;;;;;;;10.69;100.00;97968.38;5038451;28;20067;-93
2021/10/17 06:15:07;;;;;;;3.83;3.35;;;;;;;10.68;100.00;97966.63;5022541;28;20474;-90
2021/10/17 06:17:35;;;;;;;5.50;2.92;;;;;;;10.67;100.00;97962.25;5042219;28;20037;-90
2021/10/17 06:20:01;;;;;;;8.77;4.20;;;;;;;10.68;100.00;97974.66;5030102;28;20036;-88
2021/10/17 06:22:27;;;;;;;3.13;2.60;;;;;;;10.70;100.00;97978.13;5020559;28;20032;-91
2021/10/17 06:24:52;;;;;;;4.07;2.38;;;;;;;10.75;100.00;97981.41;5023950;28;20403;-92
2021/10/17 06:27:18;;;;;;;4.15;1.85;;;;;;;10.75;100.00;97973.38;5037297;28;20040;-89
2021/10/17 06:29:44;;;;;;;13.68;3.75;;;;;;;10.80;100.00;97984.69;5033358;28;20090;-87
2021/10/17 06:32:10;;;;;;;6.63;2.60;;;;;;;10.80;100.00;97982.00;5041648;28;20055;-89
2021/10/17 06:34:35;;;;;;;5.85;4.65;;;;;;;10.81;100.00;97981.06;5056135;28;20077;-90
2021/10/17 06:37:01;;;;;;;8.95;4.88;;;;;;;10.83;100.00;97995.22;5021490;28;20147;-89
2021/10/17 06:40:29;;;;;;;5.13;3.75;;;;;;;10.90;100.00;97991.25;5114159;27;20603;-74
2021/10/17 06:42:56;;;;;;;3.65;3.33;;;;;;;10.91;100.00;97993.00;5112688;28;20036;-92
2021/10/17 06:45:22;;;;;;;4.78;3.03;;;;;;;10.96;100.00;97996.25;5103106;28;20031;-91
2021/10/17 06:47:47;;;;;;;5.32;3.22;;;;;;;10.93;100.00;97985.72;5129924;28;20049;-92
2021/10/17 06:50:14;;;;;;;3.33;2.65;;;;;;;10.88;100.00;97983.31;5096636;28;20031;-90
2021/10/17 06:52:39;;;;;;;3.65;2.92;;;;;;;10.93;100.00;97996.44;5105625;28;20437;-90
2021/10/17 06:55:11;;;;;;;3.55;2.53;;;;;;;10.89;100.00;97990.38;5112217;28;20027;-89
2021/10/17 06:57:37;;;;;;;2.97;2.25;;;;;;;10.80;100.00;97966.81;5100954;28;20048;-92
2021/10/17 07:00:34;;;;;;;2.45;2.25;;;;;;;11.08;100.00;98005.41;5099983;28;20070;-90
2021/10/17 07:03:01;;;;;;;3.90;2.50;;;;;;;11.04;100.00;97999.38;5125368;28;20043;-91
2021/10/17 07:05:26;;;;;;;4.68;2.28;;;;;;;10.99;100.00;98000.56;5103368;28;20028;-90
2021/10/17 07:07:52;;;;;;;1.85;1.63;;;;;;;10.80;100.00;97984.69;5106659;28;20059;-92
2021/10/17 07:10:18;;;;;;;3.00;2.35;;;;;;;10.92;100.00;97985.81;5099761;28;20077;-73
2021/10/17 07:12:43;;;;;;;2.17;1.50;;;;;;;11.01;100.00;98010.28;5120634;28;20027;-72
2021/10/17 07:15:09;;;;;;;1.92;1.83;;;;;;;11.08;100.00;98019.66;5117590;28;20023;-73
2021/10/17 07:17:35;;;;;;;0.82;0.82;;;;;;;11.05;100.00;98018.97;5123750;27;20024;-87
2021/10/17 07:20:01;;;;;;;3.00;1.60;;;;;;;11.00;100.00;98005.84;5103335;28;20356;-91
2021/10/17 07:22:27;;;;;;;1.17;1.13;;;;;;;11.07;100.00;98014.41;5114921;28;20057;-73
2021/10/17 07:24:52;;;;;;;1.60;1.50;;;;;;;11.12;100.00;98010.50;5106343;28;20028;-86
2021/10/17 07:27:18;;;;;;;1.65;1.10;;;;;;;11.14;100.00;98019.31;5091176;28;20388;-86
2021/10/17 07:29:47;;;;;;;1.98;1.63;;;;;;;11.17;100.00;98005.75;5093135;28;20024;-78
2021/10/17 07:32:13;;;;;;;0.80;0.73;;;;;;;11.21;100.00;98015.34;5108728;28;20038;-88
2021/10/17 07:34:38;;;;;;;2.95;1.67;;;;;;;11.29;100.00;98026.47;5099113;28;20425;-86
2021/10/17 07:37:04;;;;;;;8.23;2.33;;;;;;;11.24;100.00;98020.53;5094550;28;20032;-89
2021/10/17 07:39:30;;;;;;;4.63;3.20;;;;;;;11.21;100.00;98011.78;5114129;28;20056;-91
2021/10/17 07:41:56;;;;;;;1.42;1.17;;;;;;;11.37;100.00;98034.06;5101362;28;20032;-93
2021/10/17 07:44:21;;;;;;;1.98;1.40;;;;;;;11.40;100.00;98032.09;5095495;28;20087;-94
2021/10/17 07:46:48;;;;;;;1.58;1.35;;;;;;;11.47;100.00;98023.69;5114116;28;20027;-91
2021/10/17 07:49:14;;;;;;;1.17;1.13;;;;;;;11.52;100.00;98022.47;5113952;28;20115;-91
2021/10/17 07:51:40;;;;;;;3.90;1.73;;;;;;;11.39;100.00;98030.34;5093999;28;20489;-93
2021/10/17 07:54:05;;;;;;;3.63;2.65;;;;;;;11.22;100.00;98022.44;5102577;28;20106;-93
2021/10/17 07:56:32;;;;;;;2.63;2.22;;;;;;;11.40;100.00;98040.13;5103672;28;20402;-94
2021/10/17 07:58:58;;;;;;;2.42;1.67;;;;;;;11.35;100.00;98025.28;5087484;28;20518;-93
2021/10/17 08:01:25;;;;;;;2.17;1.60;;;;;;;11.30;100.00;98019.31;5098345;28;20031;-96
2021/10/17 08:03:50;;;;;;;1.67;1.00;;;;;;;11.00;100.00;97987.13;5105325;28;20095;-94
2021/10/17 08:06:16;;;;;;;6.53;3.83;;;;;;;10.94;100.00;97992.81;5106282;28;20023;-95
2021/10/17 08:08:42;;;;;;;11.50;2.90;;;;;;;11.17;100.00;98012.91;5097460;28;20088;-92
2021/10/17 08:11:08;;;;;;;2.45;2.05;;;;;;;11.12;100.00;98001.59;5103954;28;20055;-93
2021/10/17 08:13:36;;;;;;;1.42;1.13;;;;;;;11.20;100.00;98004.69;5110951;28;20020;-96
2021/10/17 08:16:02;;;;;;;3.45;2.92;;;;;;;11.06;100.00;97960.00;5106781;28;20047;-94
2021/10/17 08:18:28;;;;;;;3.25;1.80;;;;;;;11.48;100.00;98041.47;5101249;28;20501;-95
2021/10/17 08:20:54;;;;;;;3.13;1.85;;;;;;;11.27;100.00;98006.97;5103816;28;20028;-94
2021/10/17 08:23:20;;;;;;;2.28;1.90;;;;;;;11.49;100.00;98005.72;5104954;28;20096;-94
2021/10/17 08:25:46;;;;;;;1.95;1.77;;;;;;;11.82;100.00;98036.78;5083767;28;20077;-92
2021/10/17 08:28:12;;;;;;;2.30;1.85;;;;;;;11.88;100.00;98025.69;5077448;28;20757;-72
2021/10/17 08:30:38;;;;;;;8.20;3.28;;;;;;;11.98;100.00;98014.44;5094875;28;20087;-92
2021/10/17 08:33:48;;;;;;;6.30;3.35;;;;;;;11.94;100.00;98000.34;5097796;28;20498;-92
2021/10/17 08:36:17;;;;;;;0.85;0.85;;;;;;;12.23;100.00;98020.91;5095551;28;20046;-94
2021/10/17 08:38:45;;;;;;;0.90;0.90;;;;;;;12.40;100.00;98023.41;5100516;28;20067;-93
2021/10/17 08:41:15;;;;;;;4.63;1.60;;;;;;;12.62;100.00;98005.97;5095596;28;20028;-92
2021/10/17 08:43:59;;;;;;;10.90;3.90;;;;;;;13.28;100.00;98031.25;5094704;28;20103;-88
2021/10/17 08:46:29;;;;;;;9.40;6.88;;;;;;;13.67;100.00;97987.44;5092322;28;20031;-93
2021/10/17 08:49:01;;;;;;;6.35;4.57;;;;;;;14.94;98.02;97969.50;5090447;28;20093;-94
2021/10/17 08:51:32;;;;;;;4.10;3.50;;;;;;;16.55;86.79;97990.50;5081764;28;20506;-92
2021/10/17 08:53:59;;;;;;;2.10;1.85;;;;;;;16.66;86.87;97967.06;5079886;28;20035;-94
2021/10/17 08:56:28;;;;;;;2.15;1.35;;;;;;;17.18;81.36;98036.69;5079824;28;20429;-95
2021/10/17 08:59:01;;;;;;;1.30;0.60;;;;;;;17.38;77.88;98010.72;5081916;28;20035;-89
2021/10/17 09:01:37;;;;;;;1.98;1.63;;;;;;;16.69;78.87;97961.41;5081756;28;20032;-92
2021/10/17 09:04:07;;;;;;;4.13;1.58;;;;;;;16.57;79.19;97986.69;5084335;28;20020;-93
2021/10/17 09:06:35;;;;;;;1.67;1.17;;;;;;;15.90;80.00;97984.78;5085524;28;20068;-94
2021/10/17 09:09:29;;;;;;;;;;;;;;;;;;;;;
2021/10/17 09:12:58;;;;;;;3.17;1.38;;;;;;;16.25;84.96;98028.81;5086710;28;20094;-94
2021/10/17 09:15:33;;;;;;;0.47;0.45;;;;;;;15.79;81.92;98000.91;5094783;28;20033;-94
2021/10/17 09:18:19;;;;;;;0.63;0.63;;;;;;;16.15;82.11;97998.97;5128203;27;20129;-93
2021/10/17 09:20:47;;;;;;;0.22;0.22;;;;;;;16.55;77.86;98022.91;5100090;28;20024;-91
2021/10/17 09:23:14;;;;;;;0.50;0.50;;;;;;;15.45;79.35;98000.72;5117503;28;20034;-73
2021/10/17 09:25:40;;;;;;;0.38;0.38;;;;;;;15.79;80.89;98030.59;5100801;28;20123;-74
2021/10/17 09:28:14;;;;;;;2.03;1.30;;;;;;;16.24;78.35;98021.72;5097498;28;20165;-75
2021/10/17 09:30:40;;;;;;;0.47;0.47;;;;;;;16.12;81.52;98036.13;5085853;28;20036;-74
2021/10/17 09:33:10;;;;;;;8.00;4.82;;;;;;;16.39;81.08;98031.31;5098606;28;20032;-75
2021/10/17 09:35:36;;;;;;;3.47;2.22;;;;;;;16.10;80.17;98030.84;5094381;28;20473;-75
2021/10/17 09:38:02;;;;;;;1.48;1.02;;;;;;;16.13;79.21;98019.81;5078208;28;20036;-75
2021/10/17 09:40:28;;;;;;;1.13;0.93;;;;;;;15.75;81.04;98018.31;5077418;28;20035;-74
2021/10/17 09:43:11;;;;;;;1.77;1.60;;;;;;;15.66;80.12;98023.41;5093225;28;20031;-74
2021/10/17 09:45:37;;;;;;;2.63;0.90;;;;;;;15.64;82.44;98027.19;5089212;28;20026;-74
2021/10/17 09:48:03;;;;;;;24.52;1.45;;;;;;;15.52;83.11;98020.91;5078583;28;20024;-74
2021/10/17 09:50:29;;;;;;;0.50;0.50;;;;;;;15.29;84.91;98026.25;5074645;28;20036;-75
2021/10/17 09:52:58;;;;;;;0.55;0.55;;;;;;;14.79;86.38;98025.34;5095858;28;20532;-75
2021/10/17 09:55:24;;;;;;;2.97;1.20;;;;;;;14.61;91.07;98023.97;5091561;28;20551;-75
2021/10/17 09:57:51;;;;;;;1.85;1.33;;;;;;;14.73;92.31;98027.63;5094779;28;20019;-75
2021/10/17 10:00:17;;;;;;;2.17;0.95;;;;;;;14.56;93.86;98026.09;5080219;28;20024;-73
2021/10/17 10:02:47;;;;;;;3.47;1.45;;;;;;;14.49;96.24;98030.19;5074717;28;20544;-75
2021/10/17 10:05:21;;;;;;;1.17;1.10;;;;;;;14.28;96.16;98027.13;5096069;28;20027;-74
2021/10/17 10:07:49;;;;;;;5.65;2.92;;;;;;;13.75;99.56;98017.34;5091511;28;20031;-74
2021/10/17 10:10:14;;;;;;;3.40;2.47;;;;;;;13.57;100.00;98019.44;5082720;28;20128;-74
2021/10/17 10:12:42;;;;;;;3.28;1.65;;;;;;;13.37;100.00;98017.22;5099677;28;20414;-74
2021/10/17 10:15:08;;;;;;;1.67;1.27;;;;;;;13.22;100.00;98006.59;5071273;28;20031;-75
2021/10/17 10:17:34;;;;;;;1.92;1.60;;;;;;;13.18;100.00;98014.00;5092829;28;20109;-76
2021/10/17 10:20:00;;;;;;;1.85;1.73;;;;;;;13.04;100.00;98006.78;5099815;28;20027;-75
2021/10/17 10:22:28;;;;;;;1.25;1.15;;;;;;;13.00;100.00;98012.47;5092878;28;20027;-74
2021/10/17 10:24:55;;;;;;;9.93;1.80;;;;;;;12.90;100.00;97998.75;5087733;28;20110;-74
2021/10/17 10:27:22;;;;;;;0.55;0.55;;;;;;;12.90;100.00;98003.25;5110396;28;20490;-74
2021/10/17 10:29:47;;;;;;;1.17;0.95;;;;;;;12.71;100.00;98005.38;5093051;28;20559;-74
2021/10/17 10:32:26;;;;;;;2.05;1.52;;;;;;;12.69;100.00;98005.50;5104532;28;20024;-73
2021/10/17 10:34:54;;;;;;;3.65;1.33;;;;;;;12.60;100.00;97999.84;5081253;28;20023;-76
2021/10/17 10:37:25;;;;;;;2.05;1.10;;;;;;;12.56;100.00;97995.63;5093045;28;20054;-75
2021/10/17 10:39:59;;;;;;;2.35;2.10;;;;;;;12.56;100.00;97995.63;5092842;28;20108;-76
2021/10/17 10:42:36;;;;;;;2.15;1.42;;;;;;;12.69;100.00;97999.25;5094938;28;20036;-78
2021/10/17 10:45:37;;;;;;;0.90;0.63;;;;;;;12.72;100.00;97994.56;5074914;28;20114;-76
2021/10/17 10:48:11;;;;;;;3.50;1.73;;;;;;;12.74;100.00;97997.13;5103087;28;20020;-76
2021/10/17 10:50:57;;;;;;;2.45;1.02;;;;;;;12.85;100.00;97991.97;5106183;28;20533;-76
2021/10/17 10:53:49;;;;;;;1.38;0.85;;;;;;;13.03;100.00;97997.03;5072578;28;20380;-76
2021/10/17 10:56:40;;;;;;;0.50;0.50;;;;;;;13.14;100.00;97993.66;5098200;28;20030;-75
2021/10/17 10:59:06;;;;;;;2.22;1.52;;;;;;;13.22;100.00;97991.34;5077455;28;20028;-76
2021/10/17 11:01:59;;;;;;;2.70;0.95;;;;;;;13.46;100.00;97989.72;5086713;28;20031;-75
2021/10/17 11:04:44;;;;;;;;;;;;;;;13.58;100.00;97988.91;5105145;28;20030;-75
2021/10/17 11:07:29;;;;;;;3.88;2.17;;;;;;;13.71;100.00;97988.94;5104758;28;19911;-75
2021/10/17 11:10:15;;;;;;;4.13;1.63;;;;;;;13.70;100.00;97981.84;5105082;28;20058;-74
2021/10/17 11:12:41;;;;;;;1.40;1.30;;;;;;;13.87;100.00;97984.22;5100915;28;20031;-75
2021/10/17 11:15:08;;;;;;;1.60;1.05;;;;;;;13.89;100.00;97982.31;5106944;28;20066;-75
2021/10/17 11:17:34;;;;;;;0.95;0.90;;;;;;;13.86;100.00;97984.34;5081889;28;20070;-75
2021/10/17 11:19:59;;;;;;;0.75;0.75;;;;;;;13.83;100.00;97974.69;5098861;28;20028;-75
2021/10/17 11:22:25;;;;;;;1.45;1.15;;;;;;;13.81;100.00;97979.28;5078968;28;20026;-75
2021/10/17 11:24:55;;;;;;;0.60;0.60;;;;;;;13.89;100.00;97982.31;5089558;28;20418;-76
2021/10/17 11:27:22;;;;;;;4.35;1.35;;;;;;;13.76;100.00;97978.72;5078022;28;20038;-76
2021/10/17 11:29:51;;;;;;;3.30;1.55;;;;;;;13.97;100.00;97984.47;5073905;28;20594;-74